sensor_id;sensor_type;location;lat;lon;timestamp;P1;durP1;ratioP1;P2;durP2;ratioP2
51286;SDS011;37364;46.974;18.916;2023-05-10T00:00:30;5.85;;;5.25;;
51286;SDS011;37364;46.974;18.916;2023-05-10T00:03:01;9.65;;;6.03;;
51286;SDS011;37364;46.974;18.916;2023-05-10T00:05:40;7.85;;;5.18;;
51286;SDS011;37364;46.974;18.916;2023-05-10T00:08:13;9.70;;;5.95;;
51286;SDS011;37364;46.974;18.916;2023-05-10T00:10:43;16.52;;;6.60;;
51286;SDS011;37364;46.974;18.916;2023-05-10T00:13:13;10.63;;;5.75;;
51286;SDS011;37364;46.974;18.916;2023-05-10T00:15:43;9.85;;;5.97;;
51286;SDS011;37364;46.974;18.916;2023-05-10T00:18:14;8.80;;;6.28;;
51286;SDS011;37364;46.974;18.916;2023-05-10T00:20:44;11.63;;;5.70;;
51286;SDS011;37364;46.974;18.916;2023-05-10T00:23:18;13.05;;;6.53;;
51286;SDS011;37364;46.974;18.916;2023-05-10T00:25:48;9.52;;;6.38;;
51286;SDS011;37364;46.974;18.916;2023-05-10T00:28:18;13.15;;;6.15;;
51286;SDS011;37364;46.974;18.916;2023-05-10T00:30:51;7.57;;;6.18;;
51286;SDS011;37364;46.974;18.916;2023-05-10T00:33:24;12.47;;;8.83;;
51286;SDS011;37364;46.974;18.916;2023-05-10T00:35:54;12.77;;;8.73;;
51286;SDS011;37364;46.974;18.916;2023-05-10T00:38:27;18.00;;;10.30;;
51286;SDS011;37364;46.974;18.916;2023-05-10T00:40:57;20.83;;;14.30;;
51286;SDS011;37364;46.974;18.916;2023-05-10T00:43:30;27.67;;;13.73;;
51286;SDS011;37364;46.974;18.916;2023-05-10T00:46:02;36.85;;;19.30;;
51286;SDS011;37364;46.974;18.916;2023-05-10T00:48:33;47.38;;;22.75;;
51286;SDS011;37364;46.974;18.916;2023-05-10T00:51:04;86.60;;;38.10;;
51286;SDS011;37364;46.974;18.916;2023-05-10T00:53:37;76.40;;;32.50;;
51286;SDS011;37364;46.974;18.916;2023-05-10T00:56:10;119.88;;;49.20;;
51286;SDS011;37364;46.974;18.916;2023-05-10T00:58:41;114.35;;;43.97;;
51286;SDS011;37364;46.974;18.916;2023-05-10T01:01:11;99.05;;;47.47;;
51286;SDS011;37364;46.974;18.916;2023-05-10T01:03:44;114.53;;;64.97;;
51286;SDS011;37364;46.974;18.916;2023-05-10T01:06:14;110.20;;;61.25;;
51286;SDS011;37364;46.974;18.916;2023-05-10T01:08:47;93.00;;;60.63;;
51286;SDS011;37364;46.974;18.916;2023-05-10T01:11:19;85.15;;;51.60;;
51286;SDS011;37364;46.974;18.916;2023-05-10T01:13:52;56.35;;;41.53;;
51286;SDS011;37364;46.974;18.916;2023-05-10T01:16:26;57.33;;;38.45;;
51286;SDS011;37364;46.974;18.916;2023-05-10T01:18:59;57.60;;;37.67;;
51286;SDS011;37364;46.974;18.916;2023-05-10T01:21:30;71.55;;;52.70;;
51286;SDS011;37364;46.974;18.916;2023-05-10T01:24:22;56.33;;;38.95;;
51286;SDS011;37364;46.974;18.916;2023-05-10T01:30:42;23.38;;;15.68;;
51286;SDS011;37364;46.974;18.916;2023-05-10T01:33:38;14.43;;;11.95;;
51286;SDS011;37364;46.974;18.916;2023-05-10T01:36:16;17.65;;;9.63;;
51286;SDS011;37364;46.974;18.916;2023-05-10T01:38:57;10.02;;;8.82;;
51286;SDS011;37364;46.974;18.916;2023-05-10T01:41:34;11.70;;;8.88;;
51286;SDS011;37364;46.974;18.916;2023-05-10T01:44:13;13.48;;;8.00;;
51286;SDS011;37364;46.974;18.916;2023-05-10T01:46:48;8.98;;;8.07;;
51286;SDS011;37364;46.974;18.916;2023-05-10T01:49:26;8.80;;;7.47;;
51286;SDS011;37364;46.974;18.916;2023-05-10T01:52:04;12.25;;;8.13;;
51286;SDS011;37364;46.974;18.916;2023-05-10T01:54:38;9.85;;;7.95;;
51286;SDS011;37364;46.974;18.916;2023-05-10T01:57:12;9.07;;;7.70;;
51286;SDS011;37364;46.974;18.916;2023-05-10T01:59:45;11.38;;;7.72;;
51286;SDS011;37364;46.974;18.916;2023-05-10T02:02:19;10.57;;;7.60;;
51286;SDS011;37364;46.974;18.916;2023-05-10T02:04:54;8.45;;;7.60;;
51286;SDS011;37364;46.974;18.916;2023-05-10T02:07:26;15.48;;;8.15;;
51286;SDS011;37364;46.974;18.916;2023-05-10T02:09:58;15.98;;;8.93;;
51286;SDS011;37364;46.974;18.916;2023-05-10T02:12:28;13.15;;;7.50;;
51286;SDS011;37364;46.974;18.916;2023-05-10T02:15:01;12.82;;;8.48;;
51286;SDS011;37364;46.974;18.916;2023-05-10T02:17:36;10.50;;;8.27;;
51286;SDS011;37364;46.974;18.916;2023-05-10T02:20:11;10.45;;;8.77;;
51286;SDS011;37364;46.974;18.916;2023-05-10T02:22:42;14.50;;;8.45;;
51286;SDS011;37364;46.974;18.916;2023-05-10T02:27:46;13.30;;;7.82;;
51286;SDS011;37364;46.974;18.916;2023-05-10T02:30:18;11.07;;;7.72;;
51286;SDS011;37364;46.974;18.916;2023-05-10T02:32:49;14.60;;;8.13;;
51286;SDS011;37364;46.974;18.916;2023-05-10T02:35:22;11.50;;;9.50;;
51286;SDS011;37364;46.974;18.916;2023-05-10T02:37:55;13.02;;;9.52;;
51286;SDS011;37364;46.974;18.916;2023-05-10T02:40:29;10.55;;;8.70;;
51286;SDS011;37364;46.974;18.916;2023-05-10T02:42:59;15.30;;;8.90;;
51286;SDS011;37364;46.974;18.916;2023-05-10T02:45:32;10.70;;;9.30;;
51286;SDS011;37364;46.974;18.916;2023-05-10T02:48:05;10.75;;;9.25;;
51286;SDS011;37364;46.974;18.916;2023-05-10T02:50:39;16.40;;;9.60;;
51286;SDS011;37364;46.974;18.916;2023-05-10T02:53:15;9.80;;;8.80;;
51286;SDS011;37364;46.974;18.916;2023-05-10T02:55:51;13.05;;;9.68;;
51286;SDS011;37364;46.974;18.916;2023-05-10T02:58:23;10.73;;;9.52;;
51286;SDS011;37364;46.974;18.916;2023-05-10T03:00:54;11.43;;;8.93;;
51286;SDS011;37364;46.974;18.916;2023-05-10T03:03:25;15.10;;;9.18;;
51286;SDS011;37364;46.974;18.916;2023-05-10T03:05:58;15.02;;;9.25;;
51286;SDS011;37364;46.974;18.916;2023-05-10T03:08:28;13.37;;;9.10;;
51286;SDS011;37364;46.974;18.916;2023-05-10T03:11:04;9.95;;;8.95;;
51286;SDS011;37364;46.974;18.916;2023-05-10T03:13:48;10.20;;;9.02;;
51286;SDS011;37364;46.974;18.916;2023-05-10T03:16:28;15.93;;;8.73;;
51286;SDS011;37364;46.974;18.916;2023-05-10T03:19:06;15.05;;;9.50;;
51286;SDS011;37364;46.974;18.916;2023-05-10T03:21:47;10.95;;;9.10;;
51286;SDS011;37364;46.974;18.916;2023-05-10T03:24:20;12.38;;;8.80;;
51286;SDS011;37364;46.974;18.916;2023-05-10T03:26:52;13.70;;;8.77;;
51286;SDS011;37364;46.974;18.916;2023-05-10T03:29:26;13.82;;;8.65;;
51286;SDS011;37364;46.974;18.916;2023-05-10T03:31:57;11.00;;;8.23;;
51286;SDS011;37364;46.974;18.916;2023-05-10T03:34:30;10.20;;;8.70;;
51286;SDS011;37364;46.974;18.916;2023-05-10T03:37:03;10.93;;;7.80;;
51286;SDS011;37364;46.974;18.916;2023-05-10T03:39:33;11.73;;;8.52;;
51286;SDS011;37364;46.974;18.916;2023-05-10T03:42:06;12.63;;;9.00;;
51286;SDS011;37364;46.974;18.916;2023-05-10T03:44:38;9.50;;;8.52;;
51286;SDS011;37364;46.974;18.916;2023-05-10T03:47:09;9.48;;;7.93;;
51286;SDS011;37364;46.974;18.916;2023-05-10T03:49:39;11.35;;;8.07;;
51286;SDS011;37364;46.974;18.916;2023-05-10T03:52:14;11.52;;;8.40;;
51286;SDS011;37364;46.974;18.916;2023-05-10T03:54:44;9.10;;;7.53;;
51286;SDS011;37364;46.974;18.916;2023-05-10T03:57:15;11.82;;;8.15;;
51286;SDS011;37364;46.974;18.916;2023-05-10T03:59:45;10.02;;;8.20;;
51286;SDS011;37364;46.974;18.916;2023-05-10T04:02:16;9.77;;;7.85;;
51286;SDS011;37364;46.974;18.916;2023-05-10T04:04:46;9.18;;;8.25;;
51286;SDS011;37364;46.974;18.916;2023-05-10T04:07:19;12.88;;;8.38;;
51286;SDS011;37364;46.974;18.916;2023-05-10T04:09:49;11.68;;;8.30;;
51286;SDS011;37364;46.974;18.916;2023-05-10T04:12:21;10.32;;;8.73;;
51286;SDS011;37364;46.974;18.916;2023-05-10T04:14:51;8.48;;;7.35;;
51286;SDS011;37364;46.974;18.916;2023-05-10T04:17:21;12.52;;;8.45;;
51286;SDS011;37364;46.974;18.916;2023-05-10T04:19:52;8.70;;;7.80;;
51286;SDS011;37364;46.974;18.916;2023-05-10T04:22:25;14.35;;;8.10;;
51286;SDS011;37364;46.974;18.916;2023-05-10T04:24:55;10.63;;;7.72;;
51286;SDS011;37364;46.974;18.916;2023-05-10T04:27:25;15.20;;;8.50;;
51286;SDS011;37364;46.974;18.916;2023-05-10T04:29:56;10.43;;;8.38;;
51286;SDS011;37364;46.974;18.916;2023-05-10T04:32:26;13.10;;;7.82;;
51286;SDS011;37364;46.974;18.916;2023-05-10T04:34:57;9.15;;;7.45;;
51286;SDS011;37364;46.974;18.916;2023-05-10T04:37:32;10.68;;;8.27;;
51286;SDS011;37364;46.974;18.916;2023-05-10T04:40:03;8.27;;;7.40;;
51286;SDS011;37364;46.974;18.916;2023-05-10T04:42:34;25.23;;;8.48;;
51286;SDS011;37364;46.974;18.916;2023-05-10T04:45:05;9.40;;;7.60;;
51286;SDS011;37364;46.974;18.916;2023-05-10T04:47:37;14.25;;;8.98;;
51286;SDS011;37364;46.974;18.916;2023-05-10T04:50:07;8.80;;;7.82;;
51286;SDS011;37364;46.974;18.916;2023-05-10T04:52:40;9.82;;;7.88;;
51286;SDS011;37364;46.974;18.916;2023-05-10T04:55:11;16.65;;;7.90;;
51286;SDS011;37364;46.974;18.916;2023-05-10T04:57:41;10.35;;;8.07;;
51286;SDS011;37364;46.974;18.916;2023-05-10T05:00:12;9.93;;;7.88;;
51286;SDS011;37364;46.974;18.916;2023-05-10T05:02:43;11.02;;;8.07;;
51286;SDS011;37364;46.974;18.916;2023-05-10T05:05:14;9.23;;;7.22;;
51286;SDS011;37364;46.974;18.916;2023-05-10T05:07:47;8.82;;;6.82;;
51286;SDS011;37364;46.974;18.916;2023-05-10T05:10:18;10.75;;;7.60;;
51286;SDS011;37364;46.974;18.916;2023-05-10T05:12:48;8.35;;;7.50;;
51286;SDS011;37364;46.974;18.916;2023-05-10T05:15:18;9.82;;;7.60;;
51286;SDS011;37364;46.974;18.916;2023-05-10T05:17:49;10.48;;;6.90;;
51286;SDS011;37364;46.974;18.916;2023-05-10T05:20:19;8.75;;;7.28;;
51286;SDS011;37364;46.974;18.916;2023-05-10T05:22:52;6.60;;;6.00;;
51286;SDS011;37364;46.974;18.916;2023-05-10T05:25:22;14.10;;;6.93;;
51286;SDS011;37364;46.974;18.916;2023-05-10T05:27:52;12.18;;;7.50;;
51286;SDS011;37364;46.974;18.916;2023-05-10T05:30:24;19.05;;;7.28;;
51286;SDS011;37364;46.974;18.916;2023-05-10T05:32:55;10.00;;;7.32;;
51286;SDS011;37364;46.974;18.916;2023-05-10T05:35:25;16.35;;;6.35;;
51286;SDS011;37364;46.974;18.916;2023-05-10T05:37:58;10.70;;;6.40;;
51286;SDS011;37364;46.974;18.916;2023-05-10T05:40:28;7.23;;;6.27;;
51286;SDS011;37364;46.974;18.916;2023-05-10T05:42:58;18.73;;;7.35;;
51286;SDS011;37364;46.974;18.916;2023-05-10T05:45:28;10.55;;;7.10;;
51286;SDS011;37364;46.974;18.916;2023-05-10T05:47:59;11.98;;;7.00;;
51286;SDS011;37364;46.974;18.916;2023-05-10T05:50:29;7.88;;;6.60;;
51286;SDS011;37364;46.974;18.916;2023-05-10T05:53:02;10.95;;;6.60;;
51286;SDS011;37364;46.974;18.916;2023-05-10T05:55:32;11.27;;;5.85;;
51286;SDS011;37364;46.974;18.916;2023-05-10T05:58:02;7.90;;;6.15;;
51286;SDS011;37364;46.974;18.916;2023-05-10T06:00:32;13.13;;;5.47;;
51286;SDS011;37364;46.974;18.916;2023-05-10T06:03:03;13.77;;;6.65;;
51286;SDS011;37364;46.974;18.916;2023-05-10T06:05:34;15.50;;;6.28;;
51286;SDS011;37364;46.974;18.916;2023-05-10T06:08:06;15.98;;;6.78;;
51286;SDS011;37364;46.974;18.916;2023-05-10T06:10:37;8.20;;;6.07;;
51286;SDS011;37364;46.974;18.916;2023-05-10T06:13:07;8.77;;;6.05;;
51286;SDS011;37364;46.974;18.916;2023-05-10T06:15:37;5.78;;;5.28;;
51286;SDS011;37364;46.974;18.916;2023-05-10T06:18:08;18.45;;;5.45;;
51286;SDS011;37364;46.974;18.916;2023-05-10T06:20:38;9.90;;;5.80;;
51286;SDS011;37364;46.974;18.916;2023-05-10T06:23:10;8.48;;;5.43;;
51286;SDS011;37364;46.974;18.916;2023-05-10T06:25:41;8.07;;;6.05;;
51286;SDS011;37364;46.974;18.916;2023-05-10T06:28:11;11.98;;;6.10;;
51286;SDS011;37364;46.974;18.916;2023-05-10T06:30:41;11.35;;;5.45;;
51286;SDS011;37364;46.974;18.916;2023-05-10T06:33:12;9.13;;;5.03;;
51286;SDS011;37364;46.974;18.916;2023-05-10T06:35:42;7.38;;;5.15;;
51286;SDS011;37364;46.974;18.916;2023-05-10T06:38:15;8.60;;;5.28;;
51286;SDS011;37364;46.974;18.916;2023-05-10T06:40:45;8.97;;;5.13;;
51286;SDS011;37364;46.974;18.916;2023-05-10T06:43:15;6.40;;;5.10;;
51286;SDS011;37364;46.974;18.916;2023-05-10T06:45:46;7.53;;;5.30;;
51286;SDS011;37364;46.974;18.916;2023-05-10T06:48:17;6.00;;;4.95;;
51286;SDS011;37364;46.974;18.916;2023-05-10T06:50:48;7.47;;;5.28;;
51286;SDS011;37364;46.974;18.916;2023-05-10T06:53:21;8.93;;;4.40;;
51286;SDS011;37364;46.974;18.916;2023-05-10T06:55:51;5.05;;;4.32;;
51286;SDS011;37364;46.974;18.916;2023-05-10T06:58:21;5.50;;;4.97;;
51286;SDS011;37364;46.974;18.916;2023-05-10T07:00:52;6.28;;;5.28;;
51286;SDS011;37364;46.974;18.916;2023-05-10T07:03:24;24.27;;;5.35;;
51286;SDS011;37364;46.974;18.916;2023-05-10T07:05:56;18.05;;;4.53;;
51286;SDS011;37364;46.974;18.916;2023-05-10T07:08:33;6.03;;;4.40;;
51286;SDS011;37364;46.974;18.916;2023-05-10T07:11:04;15.23;;;4.07;;
51286;SDS011;37364;46.974;18.916;2023-05-10T07:13:37;5.22;;;3.95;;
51286;SDS011;37364;46.974;18.916;2023-05-10T07:16:10;6.68;;;4.78;;
51286;SDS011;37364;46.974;18.916;2023-05-10T07:18:41;12.05;;;4.40;;
51286;SDS011;37364;46.974;18.916;2023-05-10T07:21:11;4.68;;;3.88;;
51286;SDS011;37364;46.974;18.916;2023-05-10T07:23:44;7.13;;;4.05;;
51286;SDS011;37364;46.974;18.916;2023-05-10T07:26:14;8.27;;;4.03;;
51286;SDS011;37364;46.974;18.916;2023-05-10T07:28:44;5.50;;;3.65;;
51286;SDS011;37364;46.974;18.916;2023-05-10T07:31:14;5.47;;;4.32;;
51286;SDS011;37364;46.974;18.916;2023-05-10T07:33:45;4.25;;;3.60;;
51286;SDS011;37364;46.974;18.916;2023-05-10T07:36:15;13.65;;;4.40;;
51286;SDS011;37364;46.974;18.916;2023-05-10T07:38:48;9.77;;;4.00;;
51286;SDS011;37364;46.974;18.916;2023-05-10T07:41:18;4.78;;;3.72;;
51286;SDS011;37364;46.974;18.916;2023-05-10T07:43:49;5.50;;;3.95;;
51286;SDS011;37364;46.974;18.916;2023-05-10T07:46:19;3.85;;;3.38;;
51286;SDS011;37364;46.974;18.916;2023-05-10T07:48:49;6.18;;;3.53;;
51286;SDS011;37364;46.974;18.916;2023-05-10T07:51:19;9.30;;;3.25;;
51286;SDS011;37364;46.974;18.916;2023-05-10T07:53:52;4.32;;;3.65;;
51286;SDS011;37364;46.974;18.916;2023-05-10T07:56:24;8.77;;;3.92;;
51286;SDS011;37364;46.974;18.916;2023-05-10T07:58:56;7.57;;;3.50;;
51286;SDS011;37364;46.974;18.916;2023-05-10T08:01:29;6.97;;;3.58;;
51286;SDS011;37364;46.974;18.916;2023-05-10T08:04:00;5.50;;;3.90;;
51286;SDS011;37364;46.974;18.916;2023-05-10T08:06:31;8.93;;;3.40;;
51286;SDS011;37364;46.974;18.916;2023-05-10T08:09:04;12.10;;;3.55;;
51286;SDS011;37364;46.974;18.916;2023-05-10T08:11:34;5.57;;;3.20;;
51286;SDS011;37364;46.974;18.916;2023-05-10T08:14:04;9.80;;;3.55;;
51286;SDS011;37364;46.974;18.916;2023-05-10T08:16:34;5.38;;;3.35;;
51286;SDS011;37364;46.974;18.916;2023-05-10T08:19:05;5.45;;;2.88;;
51286;SDS011;37364;46.974;18.916;2023-05-10T08:21:35;12.60;;;3.08;;
51286;SDS011;37364;46.974;18.916;2023-05-10T08:24:09;11.98;;;3.28;;
51286;SDS011;37364;46.974;18.916;2023-05-10T08:26:40;3.13;;;2.85;;
51286;SDS011;37364;46.974;18.916;2023-05-10T08:29:10;3.70;;;2.70;;
51286;SDS011;37364;46.974;18.916;2023-05-10T08:31:40;8.85;;;2.42;;
51286;SDS011;37364;46.974;18.916;2023-05-10T08:34:10;8.88;;;3.92;;
51286;SDS011;37364;46.974;18.916;2023-05-10T08:36:40;13.02;;;3.08;;
51286;SDS011;37364;46.974;18.916;2023-05-10T08:39:13;7.57;;;3.10;;
51286;SDS011;37364;46.974;18.916;2023-05-10T08:41:57;3.13;;;2.83;;
51286;SDS011;37364;46.974;18.916;2023-05-10T08:44:31;3.17;;;2.88;;
51286;SDS011;37364;46.974;18.916;2023-05-10T08:47:04;3.47;;;2.83;;
51286;SDS011;37364;46.974;18.916;2023-05-10T08:49:36;3.20;;;2.65;;
51286;SDS011;37364;46.974;18.916;2023-05-10T08:52:07;3.92;;;2.55;;
51286;SDS011;37364;46.974;18.916;2023-05-10T08:54:40;8.77;;;2.88;;
51286;SDS011;37364;46.974;18.916;2023-05-10T08:57:11;9.48;;;2.78;;
51286;SDS011;37364;46.974;18.916;2023-05-10T08:59:41;11.98;;;2.78;;
51286;SDS011;37364;46.974;18.916;2023-05-10T09:02:11;4.60;;;2.83;;
51286;SDS011;37364;46.974;18.916;2023-05-10T09:04:44;3.38;;;2.67;;
51286;SDS011;37364;46.974;18.916;2023-05-10T09:07:16;5.80;;;3.03;;
51286;SDS011;37364;46.974;18.916;2023-05-10T09:09:49;10.25;;;3.00;;
51286;SDS011;37364;46.974;18.916;2023-05-10T09:12:19;4.97;;;2.75;;
51286;SDS011;37364;46.974;18.916;2023-05-10T09:14:50;6.45;;;2.90;;
51286;SDS011;37364;46.974;18.916;2023-05-10T09:17:22;10.45;;;2.85;;
51286;SDS011;37364;46.974;18.916;2023-05-10T09:19:57;8.07;;;2.92;;
51286;SDS011;37364;46.974;18.916;2023-05-10T09:22:27;9.00;;;2.53;;
51286;SDS011;37364;46.974;18.916;2023-05-10T09:25:08;2.75;;;2.50;;
51286;SDS011;37364;46.974;18.916;2023-05-10T09:27:41;2.80;;;2.60;;
51286;SDS011;37364;46.974;18.916;2023-05-10T09:30:22;4.18;;;3.05;;
51286;SDS011;37364;46.974;18.916;2023-05-10T09:32:55;4.40;;;2.60;;
51286;SDS011;37364;46.974;18.916;2023-05-10T09:35:26;2.75;;;2.53;;
51286;SDS011;37364;46.974;18.916;2023-05-10T09:37:58;4.07;;;2.67;;
51286;SDS011;37364;46.974;18.916;2023-05-10T09:40:33;9.07;;;2.97;;
51286;SDS011;37364;46.974;18.916;2023-05-10T09:43:03;10.85;;;3.47;;
51286;SDS011;37364;46.974;18.916;2023-05-10T09:45:37;3.38;;;2.95;;
51286;SDS011;37364;46.974;18.916;2023-05-10T09:48:07;6.88;;;2.97;;
51286;SDS011;37364;46.974;18.916;2023-05-10T09:50:38;3.28;;;3.03;;
51286;SDS011;37364;46.974;18.916;2023-05-10T09:53:08;3.60;;;3.30;;
51286;SDS011;37364;46.974;18.916;2023-05-10T09:55:41;7.57;;;3.58;;
51286;SDS011;37364;46.974;18.916;2023-05-10T09:58:13;11.65;;;3.58;;
51286;SDS011;37364;46.974;18.916;2023-05-10T10:00:45;8.55;;;3.58;;
51286;SDS011;37364;46.974;18.916;2023-05-10T10:03:21;6.28;;;3.38;;
51286;SDS011;37364;46.974;18.916;2023-05-10T10:05:54;3.47;;;3.17;;
51286;SDS011;37364;46.974;18.916;2023-05-10T10:08:24;10.55;;;3.17;;
51286;SDS011;37364;46.974;18.916;2023-05-10T10:10:57;4.45;;;3.03;;
51286;SDS011;37364;46.974;18.916;2023-05-10T10:13:28;3.05;;;2.85;;
51286;SDS011;37364;46.974;18.916;2023-05-10T10:15:58;9.95;;;3.30;;
51286;SDS011;37364;46.974;18.916;2023-05-10T10:18:29;2.80;;;2.60;;
51286;SDS011;37364;46.974;18.916;2023-05-10T10:21:00;3.42;;;3.08;;
51286;SDS011;37364;46.974;18.916;2023-05-10T10:23:31;6.30;;;2.85;;
51286;SDS011;37364;46.974;18.916;2023-05-10T10:26:04;7.82;;;2.72;;
51286;SDS011;37364;46.974;18.916;2023-05-10T10:28:38;9.02;;;3.00;;
51286;SDS011;37364;46.974;18.916;2023-05-10T10:31:15;3.63;;;2.60;;
51286;SDS011;37364;46.974;18.916;2023-05-10T10:33:59;4.43;;;2.80;;
51286;SDS011;37364;46.974;18.916;2023-05-10T10:36:31;3.22;;;2.85;;
51286;SDS011;37364;46.974;18.916;2023-05-10T10:39:05;5.97;;;3.15;;
51286;SDS011;37364;46.974;18.916;2023-05-10T10:41:49;4.63;;;2.78;;
51286;SDS011;37364;46.974;18.916;2023-05-10T10:44:23;3.35;;;3.05;;
51286;SDS011;37364;46.974;18.916;2023-05-10T10:47:05;5.90;;;2.92;;
51286;SDS011;37364;46.974;18.916;2023-05-10T10:50:05;17.55;;;2.78;;
51286;SDS011;37364;46.974;18.916;2023-05-10T10:55:10;22.85;;;2.22;;
51286;SDS011;37364;46.974;18.916;2023-05-10T10:57:50;5.05;;;2.95;;
51286;SDS011;37364;46.974;18.916;2023-05-10T11:00:28;3.20;;;2.22;;
51286;SDS011;37364;46.974;18.916;2023-05-10T11:03:03;3.45;;;2.58;;
51286;SDS011;37364;46.974;18.916;2023-05-10T11:05:36;3.35;;;2.08;;
51286;SDS011;37364;46.974;18.916;2023-05-10T11:08:15;3.83;;;2.35;;
51286;SDS011;37364;46.974;18.916;2023-05-10T11:10:52;3.40;;;2.42;;
51286;SDS011;37364;46.974;18.916;2023-05-10T11:13:37;4.85;;;2.50;;
51286;SDS011;37364;46.974;18.916;2023-05-10T11:16:12;2.67;;;2.05;;
51286;SDS011;37364;46.974;18.916;2023-05-10T11:18:54;5.07;;;1.92;;
51286;SDS011;37364;46.974;18.916;2023-05-10T11:21:28;6.93;;;2.00;;
51286;SDS011;37364;46.974;18.916;2023-05-10T11:23:59;3.35;;;2.25;;
51286;SDS011;37364;46.974;18.916;2023-05-10T11:26:33;4.63;;;2.00;;
51286;SDS011;37364;46.974;18.916;2023-05-10T11:29:07;4.53;;;1.95;;
51286;SDS011;37364;46.974;18.916;2023-05-10T11:31:41;2.08;;;1.88;;
51286;SDS011;37364;46.974;18.916;2023-05-10T11:34:22;3.17;;;1.70;;
51286;SDS011;37364;46.974;18.916;2023-05-10T11:36:54;4.20;;;1.70;;
51286;SDS011;37364;46.974;18.916;2023-05-10T11:39:25;1.70;;;1.42;;
51286;SDS011;37364;46.974;18.916;2023-05-10T11:41:57;5.35;;;2.05;;
51286;SDS011;37364;46.974;18.916;2023-05-10T11:44:31;7.13;;;2.05;;
51286;SDS011;37364;46.974;18.916;2023-05-10T11:47:02;8.52;;;2.30;;
51286;SDS011;37364;46.974;18.916;2023-05-10T11:49:32;4.65;;;2.28;;
51286;SDS011;37364;46.974;18.916;2023-05-10T11:52:05;2.10;;;1.90;;
51286;SDS011;37364;46.974;18.916;2023-05-10T11:54:37;2.60;;;1.95;;
51286;SDS011;37364;46.974;18.916;2023-05-10T11:57:15;8.38;;;1.95;;
51286;SDS011;37364;46.974;18.916;2023-05-10T11:59:49;13.10;;;1.90;;
51286;SDS011;37364;46.974;18.916;2023-05-10T12:02:23;4.63;;;2.38;;
51286;SDS011;37364;46.974;18.916;2023-05-10T12:04:54;4.30;;;2.00;;
51286;SDS011;37364;46.974;18.916;2023-05-10T12:07:25;8.07;;;1.83;;
51286;SDS011;37364;46.974;18.916;2023-05-10T12:10:02;8.77;;;1.58;;
51286;SDS011;37364;46.974;18.916;2023-05-10T12:12:37;2.40;;;2.03;;
51286;SDS011;37364;46.974;18.916;2023-05-10T12:15:16;5.07;;;1.50;;
51286;SDS011;37364;46.974;18.916;2023-05-10T12:17:48;7.95;;;1.85;;
51286;SDS011;37364;46.974;18.916;2023-05-10T12:20:20;3.85;;;1.92;;
51286;SDS011;37364;46.974;18.916;2023-05-10T12:22:52;6.32;;;1.50;;
51286;SDS011;37364;46.974;18.916;2023-05-10T12:25:29;12.60;;;1.73;;
51286;SDS011;37364;46.974;18.916;2023-05-10T12:28:02;5.38;;;2.13;;
51286;SDS011;37364;46.974;18.916;2023-05-10T12:30:36;4.10;;;2.33;;
51286;SDS011;37364;46.974;18.916;2023-05-10T12:33:09;4.47;;;1.92;;
51286;SDS011;37364;46.974;18.916;2023-05-10T12:38:25;3.20;;;1.58;;
51286;SDS011;37364;46.974;18.916;2023-05-10T12:40:57;5.15;;;1.92;;
51286;SDS011;37364;46.974;18.916;2023-05-10T12:43:28;6.88;;;2.05;;
51286;SDS011;37364;46.974;18.916;2023-05-10T12:46:06;5.05;;;2.15;;
51286;SDS011;37364;46.974;18.916;2023-05-10T12:48:38;7.43;;;1.55;;
51286;SDS011;37364;46.974;18.916;2023-05-10T12:51:09;4.47;;;1.88;;
51286;SDS011;37364;46.974;18.916;2023-05-10T12:53:44;8.20;;;1.50;;
51286;SDS011;37364;46.974;18.916;2023-05-10T12:56:15;7.97;;;1.60;;
51286;SDS011;37364;46.974;18.916;2023-05-10T12:58:45;10.90;;;2.03;;
51286;SDS011;37364;46.974;18.916;2023-05-10T13:01:18;3.88;;;1.45;;
51286;SDS011;37364;46.974;18.916;2023-05-10T13:03:48;11.45;;;1.77;;
51286;SDS011;37364;46.974;18.916;2023-05-10T13:06:18;4.97;;;1.98;;
51286;SDS011;37364;46.974;18.916;2023-05-10T13:08:49;1.98;;;1.70;;
51286;SDS011;37364;46.974;18.916;2023-05-10T13:11:19;4.57;;;1.70;;
51286;SDS011;37364;46.974;18.916;2023-05-10T13:13:50;5.20;;;1.42;;
51286;SDS011;37364;46.974;18.916;2023-05-10T13:16:23;6.30;;;1.60;;
51286;SDS011;37364;46.974;18.916;2023-05-10T13:18:53;3.00;;;2.15;;
51286;SDS011;37364;46.974;18.916;2023-05-10T13:21:24;4.13;;;2.13;;
51286;SDS011;37364;46.974;18.916;2023-05-10T13:23:54;4.65;;;2.10;;
51286;SDS011;37364;46.974;18.916;2023-05-10T13:26:24;6.22;;;1.55;;
51286;SDS011;37364;46.974;18.916;2023-05-10T13:28:55;5.90;;;1.80;;
51286;SDS011;37364;46.974;18.916;2023-05-10T13:31:28;2.72;;;1.83;;
51286;SDS011;37364;46.974;18.916;2023-05-10T13:33:58;10.27;;;1.75;;
51286;SDS011;37364;46.974;18.916;2023-05-10T13:36:29;4.07;;;1.70;;
51286;SDS011;37364;46.974;18.916;2023-05-10T13:38:59;7.60;;;1.83;;
51286;SDS011;37364;46.974;18.916;2023-05-10T13:41:32;2.90;;;1.67;;
51286;SDS011;37364;46.974;18.916;2023-05-10T13:44:02;4.28;;;1.65;;
51286;SDS011;37364;46.974;18.916;2023-05-10T13:46:34;6.68;;;1.80;;
51286;SDS011;37364;46.974;18.916;2023-05-10T13:49:05;9.15;;;1.45;;
51286;SDS011;37364;46.974;18.916;2023-05-10T13:51:35;5.35;;;1.75;;
51286;SDS011;37364;46.974;18.916;2023-05-10T13:54:06;3.70;;;2.03;;
51286;SDS011;37364;46.974;18.916;2023-05-10T13:56:39;4.70;;;2.10;;
51286;SDS011;37364;46.974;18.916;2023-05-10T13:59:10;9.00;;;1.50;;
51286;SDS011;37364;46.974;18.916;2023-05-10T14:01:43;2.10;;;1.90;;
51286;SDS011;37364;46.974;18.916;2023-05-10T14:04:14;2.30;;;1.70;;
51286;SDS011;37364;46.974;18.916;2023-05-10T14:06:45;2.25;;;1.67;;
51286;SDS011;37364;46.974;18.916;2023-05-10T14:09:15;5.07;;;1.58;;
51286;SDS011;37364;46.974;18.916;2023-05-10T14:11:46;3.85;;;1.50;;
51286;SDS011;37364;46.974;18.916;2023-05-10T14:14:16;3.92;;;1.65;;
51286;SDS011;37364;46.974;18.916;2023-05-10T14:16:49;8.80;;;1.70;;
51286;SDS011;37364;46.974;18.916;2023-05-10T14:19:19;9.27;;;1.55;;
51286;SDS011;37364;46.974;18.916;2023-05-10T14:21:49;6.68;;;1.70;;
51286;SDS011;37364;46.974;18.916;2023-05-10T14:24:19;2.47;;;1.45;;
51286;SDS011;37364;46.974;18.916;2023-05-10T14:26:49;6.15;;;1.80;;
51286;SDS011;37364;46.974;18.916;2023-05-10T14:29:20;1.90;;;1.50;;
51286;SDS011;37364;46.974;18.916;2023-05-10T14:31:53;10.45;;;2.22;;
51286;SDS011;37364;46.974;18.916;2023-05-10T14:34:24;3.90;;;1.75;;
51286;SDS011;37364;46.974;18.916;2023-05-10T14:36:54;19.73;;;1.98;;
51286;SDS011;37364;46.974;18.916;2023-05-10T14:39:24;11.57;;;1.90;;
51286;SDS011;37364;46.974;18.916;2023-05-10T14:41:56;1.60;;;1.50;;
51286;SDS011;37364;46.974;18.916;2023-05-10T14:44:26;14.73;;;1.70;;
51286;SDS011;37364;46.974;18.916;2023-05-10T14:46:59;3.40;;;1.55;;
51286;SDS011;37364;46.974;18.916;2023-05-10T14:49:30;2.25;;;1.63;;
51286;SDS011;37364;46.974;18.916;2023-05-10T14:52:00;1.63;;;1.48;;
51286;SDS011;37364;46.974;18.916;2023-05-10T14:54:30;9.98;;;1.85;;
51286;SDS011;37364;46.974;18.916;2023-05-10T14:57:00;5.03;;;1.60;;
51286;SDS011;37364;46.974;18.916;2023-05-10T14:59:32;4.60;;;2.00;;
51286;SDS011;37364;46.974;18.916;2023-05-10T15:02:05;2.97;;;1.92;;
51286;SDS011;37364;46.974;18.916;2023-05-10T15:04:37;9.20;;;1.88;;
51286;SDS011;37364;46.974;18.916;2023-05-10T15:07:08;12.32;;;2.22;;
51286;SDS011;37364;46.974;18.916;2023-05-10T15:09:41;6.47;;;1.90;;